Time;durP1;ratioP1;P1;durP2;ratioP2;P2;SDS_P1;SDS_P2;PMS_P1;PMS_P2;Temp;Humidity;BMP_temperature;BMP_pressure;BME280_temperature;BME280_humidity;BME280_pressure;Samples;Min_cycle;Max_cycle;Signal;HPM_P1;HPM_P2
2023/05/27 00:01:37;;;;;;;;;;;;;;;6.74;92.68;102980.47;5083122;28;20566;-72
2023/05/27 00:04:03;;;;;;;;;;;;;;;6.72;92.99;102979.84;5071120;28;19988;-74
2023/05/27 00:06:28;;;;;;;;;;;;;;;6.64;92.74;102974.66;5090798;28;19942;-75
2023/05/27 00:08:54;;;;;;;;;;;;;;;6.63;93.35;102972.97;5070279;28;19933;-72
2023/05/27 00:11:21;;;;;;;;;;;;;;;6.65;92.95;102970.97;5103150;28;19935;-72
2023/05/27 00:13:46;;;;;;;;;;;;;;;6.63;93.04;102966.81;5100693;28;20387;-75
2023/05/27 00:16:12;;;;;;;;;;;;;;;6.60;93.02;102972.53;5086138;28;19935;-71
2023/05/27 00:18:38;;;;;;;;;;;;;;;6.53;92.96;102972.47;5065627;28;19947;-73
2023/05/27 00:21:04;;;;;;;;;;;;;;;6.63;92.96;102978.28;5078470;28;19952;-72
2023/05/27 00:23:29;;;;;;;;;;;;;;;6.78;93.34;102976.44;5082854;28;19932;-73
2023/05/27 00:25:55;;;;;;;;;;;;;;;6.77;92.78;102974.78;5054380;28;19944;-71
2023/05/27 00:28:21;;;;;;;;;;;;;;;6.68;93.37;102969.75;5067932;28;19999;-73
2023/05/27 00:30:46;;;;;;;;;;;;;;;6.61;93.33;102964.34;5050953;28;19944;-71
2023/05/27 00:33:12;;;;;;;;;;;;;;;6.54;93.33;102972.28;5072858;28;19930;-73
2023/05/27 00:35:37;;;;;;;;;;;;;;;6.60;93.29;102972.53;5089820;28;19937;-71
2023/05/27 00:38:04;;;;;;;;;;;;;;;6.46;93.43;102976.91;5089165;28;19920;-71
2023/05/27 00:40:30;;;;;;;;;;;;;;;6.49;93.53;102971.19;5083818;28;19949;-72
2023/05/27 00:42:56;;;;;;;;;;;;;;;6.40;93.63;102974.97;5086133;28;19977;-72
2023/05/27 00:45:21;;;;;;;;;;;;;;;6.35;93.82;102964.88;5083570;28;19989;-74
2023/05/27 00:47:47;;;;;;;;;;;;;;;6.29;93.83;102968.28;5086029;28;20068;-72
2023/05/27 00:50:13;;;;;;;;;;;;;;;6.29;93.92;102963.78;5084860;28;19984;-71
2023/05/27 00:52:41;;;;;;;;;;;;;;;6.39;93.75;102960.84;5090507;28;22084;-71
2023/05/27 00:55:07;;;;;;;;;;;;;;;6.37;93.56;102956.72;5060237;28;20001;-71
2023/05/27 00:57:34;;;;;;;;;;;;;;;6.31;94.01;102965.47;5060125;28;20398;-75
2023/05/27 00:59:59;;;;;;;;;;;;;;;6.24;94.18;102958.22;5054982;28;19957;-71
2023/05/27 01:02:25;;;;;;;;;;;;;;;6.20;94.14;102956.94;5071921;28;19939;-72
2023/05/27 01:04:51;;;;;;;;;;;;;;;6.13;94.43;102961.34;5087949;28;20034;-74
2023/05/27 01:07:29;;;;;;;;;;;;;;;6.09;94.30;102965.38;5107996;28;20058;-74
2023/05/27 01:09:58;;;;;;;;;;;;;;;6.09;94.49;102968.03;5068937;28;20033;-71
2023/05/27 01:12:29;;;;;;;;;;;;;;;6.11;94.57;102971.38;5107366;28;19932;-74
2023/05/27 01:14:57;;;;;;;;;;;;;;;5.99;94.36;102967.53;5075118;28;19940;-75
2023/05/27 01:17:26;;;;;;;;;;;;;;;5.96;94.62;102967.88;5057535;28;19950;-73
2023/05/27 01:19:52;;;;;;;;;;;;;;;6.12;94.79;102965.03;5082332;28;19957;-73
2023/05/27 01:22:20;;;;;;;;;;;;;;;6.11;94.34;102968.69;5057629;28;19935;-71
2023/05/27 01:24:49;;;;;;;;;;;;;;;6.02;94.38;102973.28;5071982;28;19932;-71
2023/05/27 01:27:15;;;;;;;;;;;;;;;6.18;94.29;102972.28;5108864;28;19951;-73
2023/05/27 01:29:42;;;;;;;;;;;;;;;6.18;94.42;102971.44;5089550;28;20389;-73
2023/05/27 01:32:29;;;;;;;;;;;;;;;6.36;94.13;102971.03;5072931;28;19930;-73
2023/05/27 01:35:04;;;;;;;;;;;;;;;6.15;94.05;102974.47;5100876;28;20117;-72
2023/05/27 01:37:35;;;;;;;;;;;;;;;6.01;94.53;102973.47;5098877;28;19945;-75
2023/05/27 01:40:06;;;;;;;;;;;;;;;5.91;94.41;102960.47;5069452;28;19948;-71
2023/05/27 01:42:35;;;;;;;;;;;;;;;5.85;94.24;102957.69;5050332;28;19973;-70
2023/05/27 01:45:05;;;;;;;;;;;;;;;5.89;94.58;102965.13;5088425;28;19934;-75
2023/05/27 01:47:31;;;;;;;;;;;;;;;5.93;94.40;102958.44;5069825;28;20047;-74
2023/05/27 01:49:56;;;;;;;;;;;;;;;5.99;94.10;102954.22;5084618;28;20019;-76
2023/05/27 01:52:25;;;;;;;;;;;;;;;5.91;94.73;102956.97;5090905;28;20497;-73
2023/05/27 01:54:51;;;;;;;;;;;;;;;5.92;94.77;102953.31;5088195;28;19926;-71
2023/05/27 01:57:17;;;;;;;;;;;;;;;5.81;94.76;102951.06;5089447;28;19966;-74
2023/05/27 01:59:45;;;;;;;;;;;;;;;5.86;94.62;102951.34;5063234;28;19954;-71
2023/05/27 02:02:10;;;;;;;;;;;;;;;5.81;95.08;102948.41;5055851;28;20040;-76
2023/05/27 02:04:36;;;;;;;;;;;;;;;5.80;95.58;102950.25;5066581;28;20010;-71
2023/05/27 02:07:05;;;;;;;;;;;;;;;5.84;95.15;102948.88;5067764;28;19954;-72
2023/05/27 02:09:31;;;;;;;;;;;;;;;5.94;95.04;102948.63;5046271;28;19945;-72
2023/05/27 02:11:56;;;;;;;;;;;;;;;5.74;95.45;102951.81;5084596;28;19936;-72
2023/05/27 02:14:22;;;;;;;;;;;;;;;5.76;95.13;102943.66;5031903;28;19958;-71
2023/05/27 02:16:49;;;;;;;;;;;;;;;5.74;95.41;102941.16;5075887;28;19951;-75
2023/05/27 02:19:15;;;;;;;;;;;;;;;5.77;95.30;102941.81;5041492;28;19957;-72
2023/05/27 02:21:41;;;;;;;;;;;;;;;5.66;95.28;102946.56;5048061;28;20374;-74
2023/05/27 02:24:06;;;;;;;;;;;;;;;5.57;95.20;102950.34;5035324;28;19934;-74
2023/05/27 02:26:32;;;;;;;;;;;;;;;5.53;95.31;102950.88;5040215;28;20319;-74
2023/05/27 02:29:01;;;;;;;;;;;;;;;5.50;95.30;102945.94;5063207;28;19938;-73
2023/05/27 02:31:26;;;;;;;;;;;;;;;5.41;95.34;102950.50;5065545;28;20413;-74
2023/05/27 02:33:52;;;;;;;;;;;;;;;5.49;96.24;102945.13;5066251;28;20427;-75
2023/05/27 02:36:18;;;;;;;;;;;;;;;5.52;96.02;102946.56;5078695;28;19973;-72
2023/05/27 02:38:47;;;;;;;;;;;;;;;5.51;95.61;102948.41;5051784;28;19979;-74
2023/05/27 02:41:12;;;;;;;;;;;;;;;5.43;95.68;102954.63;5052170;28;21213;-73
2023/05/27 02:43:38;;;;;;;;;;;;;;;5.38;96.04;102945.56;5068615;28;19939;-74
2023/05/27 02:46:04;;;;;;;;;;;;;;;5.38;96.07;102942.91;5049245;28;19938;-72
2023/05/27 02:48:29;;;;;;;;;;;;;;;5.41;96.22;102942.50;5053125;28;19943;-71
2023/05/27 02:50:55;;;;;;;;;;;;;;;5.33;96.15;102950.56;5063634;28;20352;-73
2023/05/27 02:53:23;;;;;;;;;;;;;;;5.29;96.09;102951.97;5070032;28;20425;-73
2023/05/27 02:55:49;;;;;;;;;;;;;;;5.24;96.15;102944.53;5050926;28;20033;-75
2023/05/27 02:58:15;;;;;;;;;;;;;;;5.25;96.43;102951.47;5045669;28;19950;-75
2023/05/27 03:00:41;;;;;;;;;;;;;;;5.27;96.76;102953.94;5051771;28;19986;-75
2023/05/27 03:03:07;;;;;;;;;;;;;;;5.37;96.71;102943.91;5063900;28;20444;-75
2023/05/27 03:05:36;;;;;;;;;;;;;;;5.29;96.67;102951.97;5048973;28;19966;-75
2023/05/27 03:08:05;;;;;;;;;;;;;;;5.29;96.77;102946.66;5083457;28;20003;-75
2023/05/27 03:10:32;;;;;;;;;;;;;;;5.24;96.49;102954.31;5051215;28;19934;-73
2023/05/27 03:12:57;;;;;;;;;;;;;;;5.27;96.85;102960.09;5050422;28;19958;-73
2023/05/27 03:15:23;;;;;;;;;;;;;;;5.24;97.05;102949.00;5033611;28;20398;-71
2023/05/27 03:17:49;;;;;;;;;;;;;;;5.22;96.68;102951.03;5067654;28;20648;-72
2023/05/27 03:20:16;;;;;;;;;;;;;;;5.26;96.58;102949.66;5049271;28;19947;-73
2023/05/27 03:22:43;;;;;;;;;;;;;;;5.28;96.67;102944.97;5049162;28;20396;-75
2023/05/27 03:25:09;;;;;;;;;;;;;;;5.23;96.55;102950.84;5052935;28;19926;-73
2023/05/27 03:27:37;;;;;;;;;;;;;;;5.35;96.75;102951.22;5054077;28;19949;-72
2023/05/27 03:30:08;;;;;;;;;;;;;;;5.35;96.86;102956.53;5069212;28;19934;-73
2023/05/27 03:32:38;;;;;;;;;;;;;;;5.31;96.95;102949.94;5063400;28;19942;-72
2023/05/27 03:35:04;;;;;;;;;;;;;;;5.37;96.88;102949.22;5050043;28;19932;-75
2023/05/27 03:37:31;;;;;;;;;;;;;;;5.54;96.16;102956.00;5065907;28;19994;-75
2023/05/27 03:40:01;;;;;;;;;;;;;;;5.43;96.76;102953.81;5057560;28;20490;-74
2023/05/27 03:42:27;;;;;;;;;;;;;;;5.45;96.68;102954.44;5064294;28;19968;-73
2023/05/27 03:44:53;;;;;;;;;;;;;;;5.50;96.22;102952.06;5060724;28;20424;-73
2023/05/27 03:47:20;;;;;;;;;;;;;;;5.62;96.33;102950.63;5049852;28;20688;-73
2023/05/27 03:49:46;;;;;;;;;;;;;;;5.61;96.31;102956.94;5050548;28;19970;-73
2023/05/27 03:52:12;;;;;;;;;;;;;;;5.60;96.70;102960.59;5048688;28;19992;-74
2023/05/27 03:54:37;;;;;;;;;;;;;;;5.64;96.71;102940.63;5047284;28;20030;-71
2023/05/27 03:57:03;;;;;;;;;;;;;;;5.68;97.11;102944.56;5051804;28;19992;-74
2023/05/27 03:59:29;;;;;;;;;;;;;;;5.70;96.92;102939.91;5062517;28;20399;-72
2023/05/27 04:01:55;;;;;;;;;;;;;;;5.79;96.99;102947.78;5067443;28;19935;-70
2023/05/27 04:04:21;;;;;;;;;;;;;;;5.73;96.78;102960.78;5069648;28;19934;-72
2023/05/27 04:06:46;;;;;;;;;;;;;;;5.72;96.82;102964.47;5054367;28;19942;-72
2023/05/27 04:09:14;;;;;;;;;;;;;;;5.77;96.32;102960.44;5056610;28;19974;-72
2023/05/27 04:11:40;;;;;;;;;;;;;;;5.87;96.29;102964.44;5076642;28;19997;-72
2023/05/27 04:14:06;;;;;;;;;;;;;;;5.93;96.21;102969.06;5059245;28;19929;-71
2023/05/27 04:16:33;;;;;;;;;;;;;;;6.01;96.50;102958.34;5041238;28;19956;-76
2023/05/27 04:19:02;;;;;;;;;;;;;;;6.29;96.16;102955.81;5066323;28;19941;-72
2023/05/27 04:21:28;;;;;;;;;;;;;;;6.40;95.77;102961.66;5055711;28;19949;-73
2023/05/27 04:23:55;;;;;;;;;;;;;;;6.47;95.58;102959.91;5065989;28;19933;-76
2023/05/27 04:26:22;;;;;;;;;;;;;;;6.52;95.26;102957.50;5057577;28;19937;-74
2023/05/27 04:28:53;;;;;;;;;;;;;;;6.55;95.62;102954.47;5051349;28;19946;-71
2023/05/27 04:31:21;;;;;;;;;;;;;;;6.66;95.22;102950.50;5066074;28;19936;-71
2023/05/27 04:33:54;;;;;;;;;;;;;;;6.82;95.34;102956.38;5063180;28;19988;-74
2023/05/27 04:36:24;;;;;;;;;;;;;;;6.83;95.41;102952.69;5070603;28;21475;-74
2023/05/27 04:39:01;;;;;;;;;;;;;;;6.95;95.07;102949.53;5055802;28;19939;-74
2023/05/27 04:41:28;;;;;;;;;;;;;;;7.17;94.10;102948.47;5068127;28;19973;-73
2023/05/27 04:44:02;;;;;;;;;;;;;;;7.23;94.29;102931.72;5076112;28;19946;-72
2023/05/27 04:46:33;;;;;;;;;;;;;;;7.32;93.83;102940.41;5039757;28;20077;-73
2023/05/27 04:48:59;;;;;;;;;;;;;;;7.43;93.57;102939.03;5073307;28;19938;-72
2023/05/27 04:51:24;;;;;;;;;;;;;;;7.54;92.79;102944.66;5077063;28;19932;-70
2023/05/27 04:53:50;;;;;;;;;;;;;;;7.67;92.75;102938.59;5070449;28;19927;-74
2023/05/27 04:56:18;;;;;;;;;;;;;;;7.68;92.69;102934.91;5066352;28;19941;-69
2023/05/27 04:58:46;;;;;;;;;;;;;;;7.80;91.67;102941.31;5053423;28;19930;-73
2023/05/27 05:01:17;;;;;;;;;;;;;;;7.92;91.71;102942.41;5052661;28;20500;-73
2023/05/27 05:04:30;;;;;;;;;;;;;;;7.97;91.63;102933.81;5040736;28;20153;-72
2023/05/27 05:06:55;;;;;;;;;;;;;;;8.08;91.29;102941.25;5069429;28;19958;-74
2023/05/27 05:09:22;;;;;;;;;;;;;;;8.19;89.48;102945.19;5069624;28;19937;-70
2023/05/27 05:11:48;;;;;;;;;;;;;;;8.32;90.02;102939.88;5055709;28;19931;-72
2023/05/27 05:14:14;;;;;;;;;;;;;;;8.54;87.96;102929.94;5066491;28;19959;-73
2023/05/27 05:16:40;;;;;;;;;;;;;;;8.63;87.40;102928.69;5056638;28;19950;-70
2023/05/27 05:19:07;;;;;;;;;;;;;;;8.71;86.96;102941.03;5054039;28;20028;-74
2023/05/27 05:21:36;;;;;;;;;;;;;;;8.74;86.21;102925.44;5056884;28;19947;-72
2023/05/27 05:24:04;;;;;;;;;;;;;;;8.86;85.92;102933.66;5049294;28;19932;-71
2023/05/27 05:26:30;;;;;;;;;;;;;;;8.95;85.18;102932.44;5051342;28;19935;-72
2023/05/27 05:28:57;;;;;;;;;;;;;;;9.01;85.24;102928.94;5050433;28;20529;-73
2023/05/27 05:31:23;;;;;;;;;;;;;;;9.16;84.40;102925.25;5058830;28;19931;-69
2023/05/27 05:33:49;;;;;;;;;;;;;;;9.10;84.22;102926.88;5032136;28;19935;-73
2023/05/27 05:36:14;;;;;;;;;;;;;;;9.11;84.31;102938.41;5068502;28;20033;-76
2023/05/27 05:38:53;;;;;;;;;;;;;;;9.18;84.61;102928.53;5052409;28;19934;-72
2023/05/27 05:41:19;;;;;;;;;;;;;;;9.24;84.32;102925.03;5048097;28;20479;-71
2023/05/27 05:43:45;;;;;;;;;;;;;;;9.41;84.00;102931.56;5053576;28;19932;-72
2023/05/27 05:46:16;;;;;;;;;;;;;;;9.57;84.12;102930.31;5066668;28;19945;-74
2023/05/27 05:48:43;;;;;;;;;;;;;;;9.55;82.80;102933.22;5071077;28;19935;-72
2023/05/27 05:51:15;;;;;;;;;;;;;;;9.81;82.23;102931.47;5054372;28;19998;-74
2023/05/27 05:53:44;;;;;;;;;;;;;;;10.00;80.70;102937.78;5053383;28;19930;-74
2023/05/27 05:56:10;;;;;;;;;;;;;;;10.06;80.44;102940.44;5050223;28;19937;-74
2023/05/27 05:58:36;;;;;;;;;;;;;;;10.22;79.47;102941.00;5066957;28;19980;-74
2023/05/27 06:01:03;;;;;;;;;;;;;;;10.42;81.51;102932.88;5049705;28;19992;-75
2023/05/27 06:03:35;;;;;;;;;;;;;;;10.54;78.52;102937.34;5051194;28;19933;-72
2023/05/27 06:06:02;;;;;;;;;;;;;;;10.73;77.96;102940.94;5070048;28;19959;-73
2023/05/27 06:08:30;;;;;;;;;;;;;;;10.86;77.27;102935.47;5061692;28;20042;-72
2023/05/27 06:11:02;;;;;;;;;;;;;;;10.84;76.77;102937.56;5052313;28;19939;-73
2023/05/27 06:13:31;;;;;;;;;;;;;;;11.08;77.55;102929.72;5056338;28;19957;-72
2023/05/27 06:16:01;;;;;;;;;;;;;;;11.23;76.88;102934.75;5069119;28;20057;-73
2023/05/27 06:18:29;;;;;;;;;;;;;;;11.47;76.22;102934.72;5051602;28;19947;-73
2023/05/27 06:20:55;;;;;;;;;;;;;;;11.61;76.18;102922.00;5050190;28;19961;-73
2023/05/27 06:23:26;;;;;;;;;;;;;;;11.70;74.20;102920.66;5063446;28;20316;-71
2023/05/27 06:25:58;;;;;;;;;;;;;;;11.81;73.47;102934.41;5087238;28;19971;-72
2023/05/27 06:28:26;;;;;;;;;;;;;;;12.01;72.47;102935.00;5066186;28;20032;-73
2023/05/27 06:30:51;;;;;;;;;;;;;;;12.06;72.77;102937.81;5063677;28;19935;-74
2023/05/27 06:33:17;;;;;;;;;;;;;;;12.23;73.32;102941.50;5060333;28;19934;-72
2023/05/27 06:35:43;;;;;;;;;;;;;;;12.20;71.26;102939.28;5044967;28;19940;-75
2023/05/27 06:38:09;;;;;;;;;;;;;;;12.37;71.14;102936.78;5055224;28;19958;-75
2023/05/27 06:40:35;;;;;;;;;;;;;;;12.45;71.50;102939.13;5030982;28;19947;-74
2023/05/27 06:43:00;;;;;;;;;;;;;;;12.45;70.93;102927.56;5048387;28;19934;-75
2023/05/27 06:45:30;;;;;;;;;;;;;;;12.61;70.96;102932.31;5064632;28;20402;-75
2023/05/27 06:48:07;;;;;;;;;;;;;;;12.77;71.07;102923.56;5068678;28;19999;-73
2023/05/27 06:50:34;;;;;;;;;;;;;;;12.80;71.28;102928.50;5066369;28;20305;-73
2023/05/27 06:52:59;;;;;;;;;;;;;;;13.22;70.11;102914.19;5032058;28;20413;-74
2023/05/27 06:55:34;;;;;;;;;;;;;;;13.29;68.76;102918.38;5054458;28;19957;-72
2023/05/27 06:58:12;;;;;;;;;;;;;;;13.21;68.92;102913.38;5079119;28;20000;-75
2023/05/27 07:00:48;;;;;;;;;;;;;;;13.56;68.84;102907.13;5050569;28;19949;-71
2023/05/27 07:03:33;;;;;;;;;;;;;;;13.73;68.70;102910.72;5086809;28;19933;-71
2023/05/27 07:05:59;;;;;;;;;;;;;;;13.75;67.36;102914.00;5051157;28;20043;-75
2023/05/27 07:08:28;;;;;;;;;;;;;;;13.98;67.06;102914.97;5069490;28;20420;-72
2023/05/27 07:11:29;;;;;;;;;;;;;;;13.90;66.99;102908.91;5050664;28;19943;-74
2023/05/27 07:14:00;;;;;;;;;;;;;;;14.00;67.00;102915.56;5047822;28;19994;-72
2023/05/27 07:16:29;;;;;;;;;;;;;;;14.00;68.70;102905.59;5047232;28;19934;-74
2023/05/27 07:18:56;;;;;;;;;;;;;;;14.30;66.71;102907.25;5062208;28;19948;-75
2023/05/27 07:21:22;;;;;;;;;;;;;;;14.33;66.46;102904.88;5051398;28;20059;-73
2023/05/27 07:23:48;;;;;;;;;;;;;;;14.38;66.52;102909.53;5063478;28;20023;-73
2023/05/27 07:26:27;;;;;;;;;;;;;;;14.58;64.71;102917.22;5045869;28;20050;-73
2023/05/27 07:28:53;;;;;;;;;;;;;;;14.53;65.57;102904.44;5063361;28;19940;-75
2023/05/27 07:31:26;;;;;;;;;;;;;;;14.69;64.55;102908.19;5050806;28;19937;-73
2023/05/27 07:34:00;;;;;;;;;;;;;;;14.81;64.67;102908.13;5049217;28;20300;-72
2023/05/27 07:36:25;;;;;;;;;;;;;;;14.99;63.96;102900.63;5066908;28;20012;-72
2023/05/27 07:38:51;;;;;;;;;;;;;;;15.13;62.72;102901.09;5048668;28;19931;-73
2023/05/27 07:41:17;;;;;;;;;;;;;;;15.01;63.49;102903.88;5067372;28;20055;-75
2023/05/27 07:43:43;;;;;;;;;;;;;;;15.17;61.51;102904.09;5052557;28;20433;-73
2023/05/27 07:46:09;;;;;;;;;;;;;;;15.03;62.68;102903.63;5055171;28;19938;-74
2023/05/27 07:48:37;;;;;;;;;;;;;;;15.32;63.21;102893.53;5055523;28;20669;-74
2023/05/27 07:51:05;;;;;;;;;;;;;;;15.23;62.72;102903.09;5071419;28;20388;-75
2023/05/27 07:53:31;;;;;;;;;;;;;;;15.38;61.89;102889.84;5053188;28;20317;-74
2023/05/27 07:55:57;;;;;;;;;;;;;;;15.19;63.39;102893.88;5077330;28;19942;-73
2023/05/27 07:58:23;;;;;;;;;;;;;;;15.23;62.49;102895.00;5055778;28;19954;-73
2023/05/27 08:00:59;;;;;;;;;;;;;;;15.52;61.64;102888.41;5037250;28;20010;-73
2023/05/27 08:03:24;;;;;;;;;;;;;;;15.70;61.09;102891.88;5071264;28;20147;-75
2023/05/27 08:05:57;;;;;;;;;;;;;;;15.58;59.11;102881.19;5072273;28;19987;-72
2023/05/27 08:08:51;;;;;;;;;;;;;;;15.84;59.15;102885.81;5043508;28;20313;-73
2023/05/27 08:11:37;;;;;;;;;;;;;;;15.93;59.86;102883.53;5059281;28;20299;-73
2023/05/27 08:14:27;;;;;;;;;;;;;;;15.91;59.70;102876.72;5064776;28;20285;-74
2023/05/27 08:17:14;;;;;;;;;;;;;;;16.17;57.33;102877.81;5066826;28;19955;-72
2023/05/27 08:20:14;;;;;;;;;;;;;;;16.17;57.44;102872.41;5021863;28;20396;-73
2023/05/27 08:22:59;;;;;;;;;;;;;;;16.55;59.04;102876.81;5078715;28;19947;-75
2023/05/27 08:25:46;;;;;;;;;;;;;;;17.00;56.32;102864.69;5056180;28;20015;-72
2023/05/27 08:28:38;;;;;;;;;;;;;;;16.64;56.84;102867.94;5068036;28;20405;-71
2023/05/27 08:31:22;;;;;;;;;;;;;;;17.04;55.01;102861.22;5078214;28;21122;-74
2023/05/27 08:33:52;;;;;;;;;;;;;;;17.53;54.72;102858.22;5050188;28;19932;-72
2023/05/27 08:36:19;;;;;;;;;;;;;;;17.24;53.73;102865.13;5054610;28;20438;-74
2023/05/27 08:38:46;;;;;;;;;;;;;;;17.09;54.71;102853.13;5065722;28;20433;-74
2023/05/27 08:41:22;;;;;;;;;;;;;;;17.45;54.86;102853.31;5068323;28;19948;-73
2023/05/27 08:43:49;;;;;;;;;;;;;;;17.21;55.00;102852.13;5052183;28;19928;-74
2023/05/27 08:46:15;;;;;;;;;;;;;;;17.36;55.24;102852.19;5068012;28;19943;-74
2023/05/27 08:48:41;;;;;;;;;;;;;;;17.39;54.32;102841.63;5049679;28;19933;-73
2023/05/27 08:51:07;;;;;;;;;;;;;;;17.59;54.69;102835.47;5069512;28;20020;-71
2023/05/27 08:53:33;;;;;;;;;;;;;;;17.40;53.33;102832.44;5069947;28;19937;-74
2023/05/27 08:56:01;;;;;;;;;;;;;;;17.16;54.58;102837.47;5054047;28;19944;-72
2023/05/27 08:58:30;;;;;;;;;;;;;;;17.40;54.78;102831.59;5059754;28;19950;-71
2023/05/27 09:00:56;;;;;;;;;;;;;;;17.81;53.71;102829.06;5050187;28;19958;-75
2023/05/27 09:03:23;;;;;;;;;;;;;;;16.90;56.23;102833.00;5036880;28;19942;-71
2023/05/27 09:05:50;;;;;;;;;;;;;;;16.21;60.63;102835.69;5051184;28;19984;-72
2023/05/27 09:08:16;;;;;;;;;;;;;;;15.86;63.40;102836.97;5086681;28;20032;-72
2023/05/27 09:10:42;;;;;;;;;;;;;;;15.25;62.91;102833.50;5043906;28;20074;-72
2023/05/27 09:13:08;;;;;;;;;;;;;;;15.36;61.87;102835.25;5064684;28;20397;-75
2023/05/27 09:15:36;;;;;;;;;;;;;;;16.45;58.98;102836.97;5052646;28;19932;-75
2023/05/27 09:18:04;;;;;;;;;;;;;;;16.60;58.15;102823.56;5069664;28;20763;-71
2023/05/27 09:20:30;;;;;;;;;;;;;;;16.62;55.98;102826.81;5055570;28;19950;-71
2023/05/27 09:22:56;;;;;;;;;;;;;;;16.88;56.90;102825.13;5071312;28;19958;-73
2023/05/27 09:25:23;;;;;;;;;;;;;;;17.38;55.43;102817.53;5084351;28;19925;-74
2023/05/27 09:27:49;;;;;;;;;;;;;;;18.26;53.57;102817.47;5069650;28;19999;-72
2023/05/27 09:30:15;;;;;;;;;;;;;;;17.83;52.40;102818.78;5081180;28;20393;-73
2023/05/27 09:32:40;;;;;;;;;;;;;;;18.56;50.87;102808.53;5068731;28;19941;-72
2023/05/27 09:35:07;;;;;;;;;;;;;;;18.32;50.59;102805.53;5082197;28;19985;-71
2023/05/27 09:37:34;;;;;;;;;;;;;;;18.30;49.33;102813.13;5085612;28;19947;-72
2023/05/27 09:40:10;;;;;;;;;;;;;;;18.53;49.39;102804.44;5069100;28;20434;-71
2023/05/27 09:42:43;;;;;;;;;;;;;;;18.80;49.29;102804.16;5083251;28;19982;-72
2023/05/27 09:45:18;;;;;;;;;;;;;;;18.95;50.50;102808.72;5068704;28;20063;-72
2023/05/27 09:47:48;;;;;;;;;;;;;;;19.43;48.74;102808.25;5049307;28;19958;-71
2023/05/27 09:50:14;;;;;;;;;;;;;;;18.64;49.15;102791.69;5070034;28;19935;-73
2023/05/27 09:52:41;;;;;;;;;;;;;;;18.67;48.61;102798.47;5084685;28;20814;-73
2023/05/27 09:55:07;;;;;;;;;;;;;;;18.90;49.52;102794.34;5089180;28;19934;-75
2023/05/27 09:57:34;;;;;;;;;;;;;;;18.98;48.67;102788.38;5089663;28;19955;-78
2023/05/27 10:00:01;;;;;;;;;;;;;;;19.46;47.38;102783.25;5052663;28;19952;-71
2023/05/27 10:02:27;;;;;;;;;;;;;;;19.61;47.92;102783.19;5060582;28;19977;-74
2023/05/27 10:04:53;;;;;;;;;;;;;;;19.77;46.24;102787.44;5051566;28;19967;-71
2023/05/27 10:07:21;;;;;;;;;;;;;;;19.64;46.71;102782.63;5083398;28;20036;-73
2023/05/27 10:09:48;;;;;;;;;;;;;;;19.18;46.96;102774.72;5065469;28;19935;-73
2023/05/27 10:12:15;;;;;;;;;;;;;;;19.29;47.68;102770.84;5084266;28;20318;-71
2023/05/27 10:14:44;;;;;;;;;;;;;;;19.02;49.11;102773.13;5069355;28;20069;-72
2023/05/27 10:17:10;;;;;;;;;;;;;;;20.10;49.76;102771.44;5068071;28;19963;-74
2023/05/27 10:19:49;;;;;;;;;;;;;;;19.91;46.00;102771.28;5051588;28;19942;-72
2023/05/27 10:22:15;;;;;;;;;;;;;;;18.59;46.65;102769.97;5069085;28;19939;-74
2023/05/27 10:24:40;;;;;;;;;;;;;;;17.86;49.10;102772.16;5086372;28;19935;-74
2023/05/27 10:27:06;;;;;;;;;;;;;;;17.84;50.72;102777.03;5064558;28;20018;-71
2023/05/27 10:29:37;;;;;;;;;;;;;;;17.79;48.60;102769.72;5054521;28;19980;-76
2023/05/27 10:32:03;;;;;;;;;;;;;;;17.65;51.32;102769.38;5082753;28;20467;-72
2023/05/27 10:34:35;;;;;;;;;;;;;;;17.62;51.23;102764.53;5067359;28;20737;-73
2023/05/27 10:37:01;;;;;;;;;;;;;;;17.16;48.30;102769.78;5048898;28;19963;-73
2023/05/27 10:39:26;;;;;;;;;;;;;;;17.67;47.02;102772.63;5079127;28;19934;-70
2023/05/27 10:41:53;;;;;;;;;;;;;;;18.26;44.83;102764.03;5088655;28;20014;-73
2023/05/27 10:44:28;;;;;;;;;;;;;;;19.44;46.35;102760.97;5064543;28;20383;-71
2023/05/27 10:47:03;;;;;;;;;;;;;;;19.39;42.10;102761.03;5057237;28;19953;-75
2023/05/27 10:49:35;;;;;;;;;;;;;;;20.08;41.24;102760.03;5082917;28;19944;-75
2023/05/27 10:52:06;;;;;;;;;;;;;;;20.09;44.53;102762.44;5070438;28;19932;-75
2023/05/27 10:54:33;;;;;;;;;;;;;;;20.37;42.52;102755.41;5058953;28;20015;-72
2023/05/27 10:57:01;;;;;;;;;;;;;;;20.15;43.21;102749.63;5069479;28;19953;-73
2023/05/27 10:59:33;;;;;;;;;;;;;;;20.68;40.25;102741.50;5069443;28;19977;-74
2023/05/27 11:01:59;;;;;;;;;;;;;;;20.34;41.54;102741.56;5087284;28;19944;-72
2023/05/27 11:04:25;;;;;;;;;;;;;;;20.52;44.33;102740.03;5069781;28;20676;-71
2023/05/27 11:07:00;;;;;;;;;;;;;;;20.32;41.98;102735.59;5063575;28;19962;-72
2023/05/27 11:09:25;;;;;;;;;;;;;;;20.71;40.28;102740.91;5066336;28;19933;-73
2023/05/27 11:11:51;;;;;;;;;;;;;;;20.25;41.47;102744.06;5085196;28;19934;-71
2023/05/27 11:14:19;;;;;;;;;;;;;;;20.49;43.41;102735.19;5067476;28;20452;-72
2023/05/27 11:16:51;;;;;;;;;;;;;;;20.12;41.91;102733.88;5034661;28;20044;-73
2023/05/27 11:19:18;;;;;;;;;;;;;;;20.60;41.35;102728.53;5073739;28;20420;-73
2023/05/27 11:21:44;;;;;;;;;;;;;;;20.24;42.91;102737.03;5065942;28;19954;-71
2023/05/27 11:24:16;;;;;;;;;;;;;;;20.55;41.03;102725.88;5084091;28;19991;-70
2023/05/27 11:26:46;;;;;;;;;;;;;;;20.49;40.35;102721.56;5088635;28;20046;-72
2023/05/27 11:29:15;;;;;;;;;;;;;;;20.27;41.30;102719.31;5086041;28;19986;-74
2023/05/27 11:31:41;;;;;;;;;;;;;;;20.80;43.04;102713.88;5081814;28;19938;-75
2023/05/27 11:34:13;;;;;;;;;;;;;;;20.93;41.71;102707.69;5083243;28;19937;-72
2023/05/27 11:36:44;;;;;;;;;;;;;;;21.19;38.82;102705.44;5088084;28;19954;-76
2023/05/27 11:39:11;;;;;;;;;;;;;;;21.34;39.24;102694.38;5046748;28;20293;-73
2023/05/27 11:41:47;;;;;;;;;;;;;;;22.06;42.59;102700.28;5033648;28;20504;-75
2023/05/27 11:44:12;;;;;;;;;;;;;;;21.84;38.00;102696.59;5077842;28;19942;-72
2023/05/27 11:46:39;;;;;;;;;;;;;;;21.59;37.23;102692.34;5031951;28;19952;-73
2023/05/27 11:49:06;;;;;;;;;;;;;;;21.82;39.11;102685.19;5047253;28;19934;-71
2023/05/27 11:51:33;;;;;;;;;;;;;;;22.02;36.60;102674.72;5069330;28;19978;-72
2023/05/27 11:54:02;;;;;;;;;;;;;;;22.38;38.07;102682.25;5083916;28;20052;-74
2023/05/27 11:56:28;;;;;;;;;;;;;;;21.84;38.10;102675.56;5036306;28;20367;-76
2023/05/27 11:58:55;;;;;;;;;;;;;;;22.15;38.71;102666.88;5050575;28;19935;-75
2023/05/27 12:01:20;;;;;;;;;;;;;;;23.01;36.91;102667.06;5064471;28;19967;-75
2023/05/27 12:03:46;;;;;;;;;;;;;;;22.13;36.62;102674.53;5065746;28;19996;-69
2023/05/27 12:06:12;;;;;;;;;;;;;;;22.16;38.49;102661.13;5050989;28;19933;-75
2023/05/27 12:08:38;;;;;;;;;;;;;;;21.40;37.74;102655.00;5048837;28;20383;-74
2023/05/27 12:11:04;;;;;;;;;;;;;;;21.16;39.59;102660.53;5068623;28;19933;-73
2023/05/27 12:13:31;;;;;;;;;;;;;;;22.56;38.46;102651.31;5079133;28;19939;-73
2023/05/27 12:15:57;;;;;;;;;;;;;;;22.23;38.53;102652.53;5065351;28;19953;-75
2023/05/27 12:18:23;;;;;;;;;;;;;;;21.88;38.84;102645.78;5063963;28;19955;-74
2023/05/27 12:20:48;;;;;;;;;;;;;;;22.51;37.66;102643.22;5080937;28;19947;-75
2023/05/27 12:23:14;;;;;;;;;;;;;;;22.33;36.82;102644.13;5084615;28;19933;-72
2023/05/27 12:25:39;;;;;;;;;;;;;;;22.96;35.88;102624.25;5065856;28;19938;-74
2023/05/27 12:28:09;;;;;;;;;;;;;;;22.80;36.42;102626.50;5066836;28;19949;-72
2023/05/27 12:30:35;;;;;;;;;;;;;;;23.50;36.69;102614.19;5054497;28;20508;-71
2023/05/27 12:33:05;;;;;;;;;;;;;;;23.09;36.01;102623.41;5087390;28;19935;-74
2023/05/27 12:35:32;;;;;;;;;;;;;;;22.90;36.43;102616.50;5084560;28;19929;-73
2023/05/27 12:37:58;;;;;;;;;;;;;;;24.29;33.53;102616.22;5057032;28;20043;-75
2023/05/27 12:40:24;;;;;;;;;;;;;;;23.10;36.00;102618.78;5069534;28;20096;-75
2023/05/27 12:42:49;;;;;;;;;;;;;;;22.95;36.77;102617.16;5067636;28;19935;-73
2023/05/27 12:45:15;;;;;;;;;;;;;;;23.42;34.99;102609.50;5069410;28;19936;-73
2023/05/27 12:47:41;;;;;;;;;;;;;;;23.51;35.07;102606.84;5079882;28;20082;-73